Terminal Aerodrome Forecast
Issued by NWS

Home | Current Version | Previous Version | Graphics & Text | Print | Product List | Glossary On
Versions: 1 2 3 4 5 6 7 8 9 10 11 12 13 14 15 16 17 18 19 20 21 22 23 24 25 26 27 28 29 30 31 32 33 34 35 36 37 38 39 40 41 42 43 44 45 46 47 48 49 50
000
FTUS43 KLOT 301957 AAA
TAFGYY
TAF AMD
KGYY 301957Z 3020/3118 12010G18KT 2SM -SHRA BR VCTS BKN003CB OVC012
     FM302100 16013KT P6SM BKN006 OVC024
     FM302300 04012KT 6SM -SHRA BR OVC006
      TEMPO 3023/3101 2SM -TSRA BR OVC005CB
     FM310400 03013G17KT 3SM -RADZ BR OVC004
     FM311100 02012G20KT 6SM BR VCSH OVC006=

USA.gov is the U.S. government's official web portal to all federal, state and local government web resources and services.